Hauptseite
METAR-TAF:

METAR-TAF

Flughäfen :

Retalhuleu, Guatemala

Breite: 14-32N, Länge: 091-40W, Höhe: 239 m

Beobachtung

Neuester Wetterbericht von vor 10 Stunden und 15 Minuten, um 00:00 UTC
Wind 12 kt aus Süd
Temperatur 31°C
Luftfeuchtigkeit 71%
Luftdruck 1013 hPa
Sichtweite 10 km oder mehr
Durchbrochene Bewölkung in der Höhe von 1800 ft
Leicht bewölkt in der Höhe von 2500 ft, Kumulonimbus.
Gewitter,

METAR: MGRT 240000Z 18012KT 9999 TS BKN018 FEW025CB 31/25 Q1013 A2991 CB/TS/PCPN N/NNE/NE CB E/SE/NW VOLC STA MARIA Y SANTGO EN ACTV

Zeit: 04:15 (10:15 UTC)


TAF: fehlend

Wetterbeobachtungen und Prognosen von mehr als 4000 Flughäfen (METAR und TAF Bericht).

Die verfügbaren Stationen werden durch gelbe und rote Markierungen auf der Karte dargestellt.

Führen Sie die Maus auf sie, um den Namen der Station zu sehen.

Darauf klicken, um die Beobachtung von Wetterbeobachtungen und Prognosen zu sehen.

Um die Karte zu ändern : klicken Sie auf den grünen Tasten mit einem schwarzen Kreuz Zum Vergrößern, auf den grünen Button mit einem Gedankenstrich zu verkleinern, oder auf die grünen Pfeile für benachbarte Karten.


METAR-TAF: